Accueil
METAR-TAF:

METAR-TAF

Aéroports :

Base aérienne 126 Solenzara

Solenzara, France

latitude: 41-55N, longitude: 009-24E, altitude: 8 m

Observation

Le bulletin a été fait il y a 34 minutes, à 09:30 UTC
Vent 4 kt de nord-est, variant entre nord/nord-est et est
Température 13°C
Humidité 72%
Pression 1013 hPa
Visibilité 10 km ou plus
Ciel couvert à une hauteur de 3900 ft

METAR: LFKS 030930Z AUTO 05004KT 030V090 9999 OVC039 13/08 Q1013

Heure: 12:04 (10:04 UTC)

Prévision

Le bulletin a été fait il y a 2 heures et 4 minutes, à 08:00 UTC
Prévision valable du 03 à 09 UTC au 04 à 09 UTC
Vent 5 kt de est
Visibilité 10 km ou plus
Nuages fragmentés à une hauteur de 3000 ft

TAF: LFKS 030800Z 0309/0409 09005KT 9999 BKN030

Observations et prévisions météorologiques de plus de 4000 aéroports (messages METAR et TAF).

Les stations disponibles sont représentées par des disques jaunes et rouges sur la carte.

Passer la souris dessus pour voir le nom de la station.

Cliquer dessus pour voir les observations et prévisions météorologiques.

Pour changer de carte: cliquez sur les boutons verts avec une croix noire pour zoomer, sur le bouton vert avec un tiret pour effectuer un zoom arrière, ou sur les flèches vertes pour les cartes adjacentes.


METAR-TAF: